createdAt,value
2018-12-23T00:00:11.530Z,88.57
2018-12-23T00:03:19.304Z,88.40
2018-12-23T00:06:26.086Z,88.87
2018-12-23T00:09:32.031Z,88.29
2018-12-23T00:12:38.087Z,89.30
2018-12-23T00:15:44.365Z,89.28
2018-12-23T00:18:50.036Z,88.96
2018-12-23T00:21:55.943Z,89.27
2018-12-23T00:25:01.931Z,89.87
2018-12-23T00:28:07.850Z,89.47
2018-12-23T00:31:13.798Z,89.17
2018-12-23T00:34:19.823Z,89.77
2018-12-23T00:37:25.839Z,89.35
2018-12-23T00:40:31.482Z,89.62
2018-12-23T00:43:37.477Z,89.73
2018-12-23T00:46:44.086Z,90.49
2018-12-23T00:49:50.475Z,90.28
2018-12-23T00:52:56.089Z,88.98
2018-12-23T00:56:02.129Z,88.53
2018-12-23T00:59:07.754Z,88.66
2018-12-23T01:02:13.727Z,87.92
2018-12-23T01:05:19.714Z,88.59
2018-12-23T01:08:25.876Z,87.31
2018-12-23T01:11:32.001Z,87.06
2018-12-23T01:14:38.116Z,87.19
2018-12-23T01:17:44.397Z,87.05
2018-12-23T01:20:50.773Z,87.62
2018-12-23T01:23:56.689Z,86.95
2018-12-23T01:27:02.625Z,85.45
2018-12-23T01:30:09.003Z,86.59
2018-12-23T01:33:14.666Z,86.78
2018-12-23T01:36:20.572Z,87.64
2018-12-23T01:39:26.909Z,89.22
2018-12-23T01:42:32.509Z,88.84
2018-12-23T01:45:38.472Z,89.49
2018-12-23T01:48:44.810Z,90.24
2018-12-23T01:51:50.776Z,90.93
2018-12-23T01:54:56.688Z,91.91
2018-12-23T01:58:02.641Z,92.16
2018-12-23T02:01:08.713Z,92.79
2018-12-23T02:04:14.680Z,92.98
2018-12-23T02:07:20.593Z,93.41
2018-12-23T02:10:26.536Z,93.57
2018-12-23T02:13:32.434Z,93.67
2018-12-23T02:16:38.935Z,93.47
2018-12-23T02:19:45.400Z,93.62
2018-12-23T02:22:52.230Z,93.91
2018-12-23T02:25:58.818Z,93.81
2018-12-23T02:29:05.136Z,94.05
2018-12-23T02:32:10.906Z,93.83
2018-12-23T02:35:17.354Z,93.81
2018-12-23T02:38:23.283Z,94.58
2018-12-23T02:41:31.925Z,94.09
2018-12-23T02:44:37.346Z,93.59
2018-12-23T02:47:43.451Z,94.20
2018-12-23T02:50:49.077Z,94.37
2018-12-23T02:53:55.025Z,93.82
2018-12-23T02:57:00.929Z,94.20
2018-12-23T03:00:15.267Z,94.98
2018-12-23T03:03:21.278Z,94.51
2018-12-23T03:06:27.976Z,95.29
2018-12-23T03:09:33.683Z,95.55
2018-12-23T03:12:40.250Z,94.54
2018-12-23T03:15:46.833Z,95.00
2018-12-23T03:18:52.785Z,94.87
2018-12-23T03:21:58.700Z,94.48
2018-12-23T03:25:05.129Z,94.00
2018-12-23T03:28:11.001Z,95.06
2018-12-23T03:31:16.944Z,96.45
2018-12-23T03:34:22.874Z,97.31
2018-12-23T03:37:28.555Z,97.06
2018-12-23T03:40:35.144Z,96.66
2018-12-23T03:43:41.089Z,95.84
2018-12-23T03:46:47.119Z,94.48
2018-12-23T03:49:53.236Z,95.71
2018-12-23T03:52:59.139Z,94.96
2018-12-23T03:56:05.079Z,96.38
2018-12-23T03:59:11.173Z,94.22
2018-12-23T04:02:18.201Z,94.89
2018-12-23T04:05:24.122Z,94.68
2018-12-23T04:08:29.800Z,94.68
2018-12-23T04:11:35.781Z,95.40
2018-12-23T04:14:42.250Z,96.49
2018-12-23T04:17:48.158Z,96.49
2018-12-23T04:20:54.097Z,95.59
2018-12-23T04:23:59.997Z,95.14
2018-12-23T04:27:05.962Z,95.35
2018-12-23T04:30:11.893Z,94.90
2018-12-23T04:33:17.952Z,94.68
2018-12-23T04:36:23.846Z,94.79
2018-12-23T04:39:29.805Z,94.89
2018-12-23T04:42:35.711Z,94.63
2018-12-23T04:45:43.419Z,95.87
2018-12-23T04:48:49.369Z,96.20
2018-12-23T04:51:55.340Z,95.83
2018-12-23T04:55:01.342Z,96.16
2018-12-23T04:58:07.290Z,95.73
2018-12-23T05:01:13.216Z,95.65
2018-12-23T05:04:19.198Z,95.18
2018-12-23T05:07:25.097Z,94.83
2018-12-23T05:10:31.045Z,95.28
2018-12-23T05:13:36.929Z,95.17
2018-12-23T05:16:43.687Z,95.13
2018-12-23T05:19:49.604Z,95.73
2018-12-23T05:22:55.536Z,94.17
2018-12-23T05:26:01.454Z,93.90
2018-12-23T05:29:07.382Z,93.72
2018-12-23T05:32:13.285Z,92.92
2018-12-23T05:35:19.199Z,93.05
2018-12-23T05:38:25.263Z,93.18
2018-12-23T05:41:30.920Z,93.00
2018-12-23T05:44:36.837Z,92.04
2018-12-23T05:47:44.060Z,91.98
2018-12-23T05:50:49.665Z,92.80
2018-12-23T05:53:55.367Z,92.35
2018-12-23T05:57:01.277Z,92.16
2018-12-23T06:00:08.463Z,91.86
2018-12-23T06:03:14.125Z,92.41
2018-12-23T06:06:20.079Z,92.04
2018-12-23T06:09:26.135Z,92.36
2018-12-23T06:12:31.789Z,92.46
2018-12-23T06:15:37.692Z,91.41
2018-12-23T06:18:45.162Z,92.11
2018-12-23T06:21:51.122Z,91.74
2018-12-23T06:24:57.072Z,92.04
2018-12-23T06:28:02.972Z,92.01
2018-12-23T06:31:09.373Z,91.84
2018-12-23T06:34:15.285Z,91.51
2018-12-23T06:37:20.940Z,91.75
2018-12-23T06:40:27.018Z,91.98
2018-12-23T06:43:33.174Z,91.56
2018-12-23T06:46:39.097Z,91.10
2018-12-23T06:49:45.681Z,92.17
2018-12-23T06:52:51.313Z,92.87
2018-12-23T06:55:57.475Z,91.21
2018-12-23T06:59:03.150Z,92.45
2018-12-23T07:02:09.202Z,91.39
2018-12-23T07:05:15.189Z,90.90
2018-12-23T07:08:20.841Z,90.44
2018-12-23T07:11:26.750Z,90.88
2018-12-23T07:14:32.709Z,90.73
2018-12-23T07:17:38.335Z,90.82
2018-12-23T07:20:44.487Z,90.46
2018-12-23T07:23:50.109Z,91.15
2018-12-23T07:26:56.133Z,90.47
2018-12-23T07:30:02.376Z,91.15
2018-12-23T07:33:08.021Z,91.96
2018-12-23T07:36:13.650Z,91.86
2018-12-23T07:39:19.591Z,91.41
2018-12-23T07:42:25.532Z,91.19
2018-12-23T07:45:31.634Z,90.14
2018-12-23T07:48:37.776Z,90.76
2018-12-23T07:51:44.071Z,90.39
2018-12-23T07:54:49.980Z,90.26
2018-12-23T07:57:55.985Z,90.57
2018-12-23T08:01:01.644Z,90.22
2018-12-23T08:04:07.620Z,90.02
2018-12-23T08:07:13.517Z,89.25
2018-12-23T08:10:19.570Z,90.27
2018-12-23T08:13:25.564Z,89.48
2018-12-23T08:16:31.226Z,89.12
2018-12-23T08:19:36.863Z,89.81
2018-12-23T08:22:42.987Z,89.67
2018-12-23T08:25:48.635Z,89.31
2018-12-23T08:28:54.577Z,89.42
2018-12-23T08:32:00.585Z,89.94
2018-12-23T08:35:06.691Z,89.55
2018-12-23T08:38:12.317Z,89.14
2018-12-23T08:41:17.983Z,89.79
2018-12-23T08:44:23.911Z,89.12
2018-12-23T08:47:29.858Z,88.64
2018-12-23T08:50:35.772Z,88.98
2018-12-23T08:54:04.039Z,88.92
2018-12-23T08:57:10.043Z,87.68
2018-12-23T09:00:16.215Z,88.26
2018-12-23T09:03:22.154Z,88.40
2018-12-23T09:06:28.554Z,88.46
2018-12-23T09:09:34.462Z,88.80
2018-12-23T09:12:40.426Z,88.38
2018-12-23T09:15:46.407Z,88.24
2018-12-23T09:18:52.365Z,87.94
2018-12-23T09:21:58.466Z,87.99
2018-12-23T09:25:04.933Z,87.70
2018-12-23T09:28:10.863Z,88.44
2018-12-23T09:31:16.878Z,88.38
2018-12-23T09:34:22.824Z,87.85
2018-12-23T09:37:28.841Z,87.55
2018-12-23T09:40:34.897Z,87.30
2018-12-23T09:43:40.583Z,86.61
2018-12-23T09:46:46.490Z,87.40
2018-12-23T09:49:52.422Z,86.47
2018-12-23T09:52:58.374Z,86.93
2018-12-23T09:56:04.146Z,86.76
2018-12-23T09:59:10.271Z,87.02
2018-12-23T10:02:16.139Z,87.74
2018-12-23T10:05:21.761Z,85.89
2018-12-23T10:08:27.726Z,84.95
2018-12-23T10:11:34.459Z,85.31
2018-12-23T10:14:40.393Z,86.04
2018-12-23T10:17:46.314Z,85.68
2018-12-23T10:20:52.488Z,85.52
2018-12-23T10:23:58.473Z,86.38
2018-12-23T10:27:04.206Z,85.91
2018-12-23T10:30:11.548Z,86.21
2018-12-23T10:33:17.503Z,86.46
2018-12-23T10:36:23.410Z,86.60
2018-12-23T10:39:29.678Z,86.04
2018-12-23T10:42:35.444Z,86.20
2018-12-23T10:45:41.684Z,86.12
2018-12-23T10:48:48.370Z,86.33
2018-12-23T10:51:54.958Z,85.82
2018-12-23T10:55:01.971Z,85.47
2018-12-23T10:58:07.942Z,84.90
2018-12-23T11:01:13.849Z,85.40
2018-12-23T11:04:20.035Z,85.55
2018-12-23T11:07:26.715Z,84.93
2018-12-23T11:10:32.594Z,85.52
2018-12-23T11:13:38.372Z,84.79
2018-12-23T11:16:44.853Z,84.14
2018-12-23T11:19:50.770Z,84.42
2018-12-23T11:22:56.717Z,84.67
2018-12-23T11:26:02.932Z,83.83
2018-12-23T11:29:09.219Z,83.72
2018-12-23T11:32:14.966Z,83.85
2018-12-23T11:35:21.490Z,84.10
2018-12-23T11:38:35.276Z,84.85
2018-12-23T11:41:35.919Z,83.94
2018-12-23T11:44:43.180Z,83.12
2018-12-23T11:47:49.263Z,84.16
2018-12-23T11:50:55.167Z,83.81
2018-12-23T11:54:01.111Z,82.49
2018-12-23T11:57:06.997Z,83.53
2018-12-23T12:00:13.129Z,84.54
2018-12-23T12:03:19.712Z,83.91
2018-12-23T12:06:26.407Z,84.69
2018-12-23T12:09:32.507Z,84.25
2018-12-23T12:12:38.615Z,84.87
2018-12-23T12:15:44.762Z,84.56
2018-12-23T12:18:50.557Z,85.04
2018-12-23T12:22:32.258Z,85.60
2018-12-23T12:25:39.722Z,85.50
2018-12-23T12:28:47.338Z,85.80
2018-12-23T12:31:54.606Z,85.14
2018-12-23T12:35:01.817Z,85.50
2018-12-23T12:38:10.512Z,85.83
2018-12-23T12:41:18.246Z,85.61
2018-12-23T12:44:25.637Z,86.14
2018-12-23T12:47:33.333Z,85.67
2018-12-23T12:50:42.633Z,85.73
2018-12-23T12:53:50.298Z,84.57
2018-12-23T12:56:58.027Z,85.07
2018-12-23T13:00:06.096Z,85.35
2018-12-23T13:03:13.869Z,85.92
2018-12-23T13:06:21.329Z,86.20
2018-12-23T13:09:28.596Z,85.49
2018-12-23T13:12:36.173Z,87.37
2018-12-23T13:15:46.008Z,87.76
2018-12-23T13:18:53.220Z,88.60
2018-12-23T13:22:00.804Z,89.08
2018-12-23T13:25:08.447Z,89.37
2018-12-23T13:28:16.049Z,90.39
2018-12-23T13:31:23.329Z,91.07
2018-12-23T13:34:32.559Z,91.27
2018-12-23T13:37:39.615Z,91.66
2018-12-23T13:41:06.127Z,91.66
2018-12-23T13:45:11.327Z,91.96
2018-12-23T13:49:04.922Z,91.21
2018-12-23T13:53:30.778Z,92.11
2018-12-23T13:57:18.892Z,91.37
2018-12-23T14:01:34.059Z,91.94
2018-12-23T14:05:11.831Z,92.53
2018-12-23T14:09:07.069Z,92.29
2018-12-23T14:12:14.598Z,92.29
2018-12-23T14:15:22.084Z,92.79
2018-12-23T14:18:29.638Z,91.52
2018-12-23T14:21:37.143Z,91.06
2018-12-23T14:24:45.480Z,91.27
2018-12-23T14:27:53.041Z,91.46
2018-12-23T14:31:00.598Z,91.87
2018-12-23T14:34:08.372Z,91.91
2018-12-23T14:37:17.579Z,91.88
2018-12-23T14:40:26.825Z,91.59
2018-12-23T14:43:34.574Z,91.65
2018-12-23T14:46:43.935Z,91.91
2018-12-23T14:49:51.436Z,91.56
2018-12-23T14:52:58.754Z,91.25
2018-12-23T14:56:06.215Z,90.51
2018-12-23T14:59:14.598Z,90.49
2018-12-23T15:02:22.033Z,90.27
2018-12-23T15:05:29.609Z,90.57
2018-12-23T15:08:37.186Z,91.60
2018-12-23T15:11:46.763Z,91.60
2018-12-23T15:14:54.349Z,92.35
2018-12-23T15:18:01.713Z,93.77
2018-12-23T15:21:09.072Z,93.37
2018-12-23T15:24:16.253Z,93.59
2018-12-23T15:27:23.934Z,93.15
2018-12-23T15:30:31.665Z,93.77
2018-12-23T15:33:39.521Z,94.35
2018-12-23T15:36:47.035Z,94.56
2018-12-23T15:39:54.416Z,94.44
2018-12-23T15:43:01.879Z,94.36
2018-12-23T15:46:28.400Z,94.66
2018-12-23T15:49:35.707Z,94.52
2018-12-23T15:52:45.310Z,94.03
2018-12-23T15:55:52.910Z,93.58
2018-12-23T15:59:00.437Z,92.82
2018-12-23T16:02:07.842Z,92.85
2018-12-23T16:05:15.113Z,93.60
2018-12-23T16:08:22.357Z,93.29
2018-12-23T16:11:31.598Z,93.99
2018-12-23T16:14:39.193Z,94.45
2018-12-23T16:17:47.759Z,94.78
2018-12-23T16:20:55.193Z,94.64
2018-12-23T16:24:02.755Z,94.30
2018-12-23T16:27:10.197Z,95.74
2018-12-23T16:30:17.728Z,94.93
2018-12-23T16:33:25.387Z,95.93
2018-12-23T16:36:32.616Z,95.32
2018-12-23T16:39:40.144Z,95.98
2018-12-23T16:42:47.361Z,95.58
2018-12-23T16:45:55.054Z,94.89
2018-12-23T16:49:02.717Z,94.87
2018-12-23T16:52:10.499Z,95.45
2018-12-23T16:55:18.129Z,95.25
2018-12-23T16:58:25.565Z,94.84
2018-12-23T17:01:33.088Z,94.14
2018-12-23T17:04:40.546Z,95.39
2018-12-23T17:07:48.110Z,95.36
2018-12-23T17:10:55.622Z,95.04
2018-12-23T17:14:03.132Z,95.37
2018-12-23T17:17:10.728Z,95.98
2018-12-23T17:20:18.359Z,96.57
2018-12-23T17:23:25.902Z,96.61
2018-12-23T17:26:33.360Z,96.17
2018-12-23T17:29:40.582Z,96.12
2018-12-23T17:32:48.085Z,96.76
2018-12-23T17:35:55.293Z,97.12
2018-12-23T17:39:04.945Z,97.39
2018-12-23T17:42:12.363Z,96.72
2018-12-23T17:45:19.956Z,97.07
2018-12-23T17:48:27.776Z,97.40
2018-12-23T17:51:35.418Z,98.20
2018-12-23T17:54:42.906Z,98.20
2018-12-23T17:57:50.414Z,97.23
2018-12-23T18:00:58.254Z,97.29
2018-12-23T18:04:05.571Z,97.49
2018-12-23T18:07:13.162Z,97.72
2018-12-23T18:10:25.010Z,98.17
2018-12-23T18:13:30.323Z,97.95
2018-12-23T18:16:37.959Z,97.92
2018-12-23T18:19:45.651Z,98.38
2018-12-23T18:22:53.420Z,99.39
2018-12-23T18:26:00.946Z,98.32
2018-12-23T18:29:08.414Z,97.08
2018-12-23T18:32:15.902Z,97.55
2018-12-23T18:35:23.633Z,96.75
2018-12-23T18:38:31.099Z,97.45
2018-12-23T18:41:38.424Z,98.12
2018-12-23T18:44:46.017Z,98.99
2018-12-23T18:47:53.477Z,98.28
2018-12-23T18:51:00.973Z,98.05
2018-12-23T18:54:26.026Z,98.47
2018-12-23T18:57:42.572Z,98.41
2018-12-23T19:00:55.548Z,98.87
2018-12-23T19:04:02.747Z,98.52
2018-12-23T19:07:10.510Z,99.32
2018-12-23T19:11:21.037Z,99.06
2018-12-23T19:15:15.576Z,98.55
2018-12-23T19:19:34.060Z,97.48
2018-12-23T19:23:56.445Z,99.16
2018-12-23T19:27:39.024Z,98.34
2018-12-23T19:31:40.470Z,97.51
2018-12-23T19:35:49.169Z,98.06
2018-12-23T19:40:29.775Z,97.95
2018-12-23T19:44:35.132Z,97.27
2018-12-23T19:48:50.494Z,97.42
2018-12-23T19:53:37.531Z,97.40
2018-12-23T19:57:56.759Z,96.92
2018-12-23T20:02:01.976Z,99.08
2018-12-23T20:06:20.740Z,98.88
2018-12-23T20:10:01.157Z,98.09
2018-12-23T20:13:50.256Z,98.23
2018-12-23T20:17:41.441Z,96.61
2018-12-23T20:21:43.944Z,96.89
2018-12-23T20:26:09.525Z,97.59
2018-12-23T20:30:17.699Z,97.73
2018-12-23T20:34:34.024Z,97.52
2018-12-23T20:39:02.167Z,96.88
2018-12-23T20:43:06.711Z,97.59
2018-12-23T20:47:17.603Z,99.53
2018-12-23T20:51:30.379Z,100.00
2018-12-23T20:55:24.535Z,99.27
2018-12-23T20:59:20.566Z,98.32
2018-12-23T21:03:19.514Z,97.47
2018-12-23T21:07:23.423Z,97.50
2018-12-23T21:11:16.118Z,96.13
2018-12-23T21:15:14.232Z,96.18
2018-12-23T21:19:22.825Z,96.99
2018-12-23T21:23:43.623Z,96.20
2018-12-23T21:27:44.204Z,96.86
2018-12-23T21:31:33.721Z,98.36
2018-12-23T21:35:34.369Z,96.99
2018-12-23T21:39:53.766Z,98.78
2018-12-23T21:44:23.087Z,100.00
2018-12-23T21:48:06.722Z,99.00
2018-12-23T21:52:08.554Z,98.29
2018-12-23T21:56:21.492Z,98.19
2018-12-23T22:01:33.288Z,98.20
2018-12-23T22:05:47.340Z,98.09
2018-12-23T22:09:56.758Z,97.77
2018-12-23T22:13:34.878Z,95.93
2018-12-23T22:16:42.229Z,95.75
2018-12-23T22:19:49.464Z,95.88
2018-12-23T22:22:58.507Z,96.25
2018-12-23T22:26:06.503Z,96.39
2018-12-23T22:29:13.879Z,96.04
2018-12-23T22:32:20.982Z,96.79
2018-12-23T22:35:28.011Z,96.45
2018-12-23T22:38:35.366Z,96.27
2018-12-23T22:41:42.292Z,96.53
2018-12-23T22:44:50.792Z,96.47
2018-12-23T22:47:57.892Z,97.32
2018-12-23T22:51:04.730Z,98.60
2018-12-23T22:54:12.491Z,98.37
2018-12-23T22:57:19.590Z,98.35
2018-12-23T23:00:31.668Z,99.13
2018-12-23T23:03:39.139Z,97.84
2018-12-23T23:06:48.466Z,97.93
2018-12-23T23:09:55.118Z,97.92
2018-12-23T23:13:02.024Z,96.69
2018-12-23T23:16:09.257Z,95.09
2018-12-23T23:19:16.155Z,94.98
2018-12-23T23:22:22.835Z,94.29
2018-12-23T23:25:29.870Z,94.49
2018-12-23T23:28:36.691Z,93.93
2018-12-23T23:31:44.480Z,94.99
2018-12-23T23:34:51.441Z,95.17
2018-12-23T23:37:58.392Z,95.39
2018-12-23T23:41:05.390Z,93.94
2018-12-23T23:44:12.641Z,94.72
2018-12-23T23:47:19.337Z,94.49
2018-12-23T23:50:26.320Z,95.79
2018-12-23T23:53:32.982Z,96.26
2018-12-23T23:56:40.016Z,96.00
2018-12-23T23:59:48.596Z,95.99
